Time;durP1;ratioP1;P1;durP2;ratioP2;P2;SDS_P1;SDS_P2;PMS_P1;PMS_P2;Temp;Humidity;BMP_temperature;BMP_pressure;BME280_temperature;BME280_humidity;BME280_pressure;Samples;Min_cycle;Max_cycle;Signal;HPM_P1;HPM_P2
2023/07/28 00:00:04;;;;;;;;;;;;;;;;;;2085169;28;19909;-81
2023/07/28 00:01:25;;;;;;;;;;;;;;;;;;2074719;28;20304;-80
2023/07/28 00:02:45;;;;;;;;;;;;;;;;;;2084543;28;19925;-80
2023/07/28 00:04:09;;;;;;;;;;;;;;;;;;2090953;28;19916;-79
2023/07/28 00:05:30;;;;;;;;;;;;;;;;;;2090098;28;19913;-79
2023/07/28 00:06:50;;;;;;;;;;;;;;;;;;2098744;28;19919;-79
2023/07/28 00:08:11;;;;;;;;;;;;;;;;;;2082946;28;19980;-79
2023/07/28 00:09:32;;;;;;;;;;;;;;;;;;2084904;28;19913;-79
2023/07/28 00:10:52;;;;;;;;;;;;;;;;;;2075331;28;19913;-79
2023/07/28 00:12:13;;;;;;;;;;;;;;;;;;2082034;28;19913;-80
2023/07/28 00:13:34;;;;;;;;;;;;;;;;;;2085827;28;19986;-79
2023/07/28 00:14:55;;;;;;;;;;;;;;;;;;2090672;28;19913;-80
2023/07/28 00:16:15;;;;;;;;;;;;;;;;;;2089954;28;19936;-80
2023/07/28 00:17:36;;;;;;;;;;;;;;;;;;2090208;28;19916;-80
2023/07/28 00:18:57;;;;;;;;;;;;;;;;;;2079702;28;19909;-80
2023/07/28 00:20:17;;;;;;;;;;;;;;;;;;2085657;28;19920;-80
2023/07/28 00:21:38;;;;;;;;;;;;;;;;;;2083904;28;20364;-80
2023/07/28 00:22:59;;;;;;;;;;;;;;;;;;2086474;28;20427;-80
2023/07/28 00:24:20;;;;;;;;;;;;;;;;;;2095025;28;19912;-80
2023/07/28 00:25:40;;;;;;;;;;;;;;;;;;2086410;28;19913;-79
2023/07/28 00:27:01;;;;;;;;;;;;;;;;;;2087769;28;19913;-79
2023/07/28 00:28:22;;;;;;;;;;;;;;;;;;2091624;28;19913;-80
2023/07/28 00:29:42;;;;;;;;;;;;;;;;;;2086690;28;20261;-80
2023/07/28 00:31:03;;;;;;;;;;;;;;;;;;2082545;28;19913;-80
2023/07/28 00:32:24;;;;;;;;;;;;;;;;;;2081986;28;19913;-79
2023/07/28 00:33:45;;;;;;;;;;;;;;;;;;2081827;28;19940;-79
2023/07/28 00:35:05;;;;;;;;;;;;;;;;;;2074013;28;19914;-80
2023/07/28 00:36:26;;;;;;;;;;;;;;;;;;2078736;28;19985;-80
2023/07/28 00:37:47;;;;;;;;;;;;;;;;;;2078139;28;19963;-79
2023/07/28 00:39:07;;;;;;;;;;;;;;;;;;2083997;28;20364;-80
2023/07/28 00:40:28;;;;;;;;;;;;;;;;;;2075135;28;19917;-79
2023/07/28 00:41:49;;;;;;;;;;;;;;;;;;2083689;28;19920;-80
2023/07/28 00:43:09;;;;;;;;;;;;;;;;;;2087546;28;19928;-78
2023/07/28 00:44:30;;;;;;;;;;;;;;;;;;2086641;28;19917;-80
2023/07/28 00:45:51;;;;;;;;;;;;;;;;;;2094450;28;19955;-79
2023/07/28 00:47:11;;;;;;;;;;;;;;;;;;2078765;28;19913;-79
2023/07/28 00:48:32;;;;;;;;;;;;;;;;;;2083652;28;19967;-80
2023/07/28 00:49:53;;;;;;;;;;;;;;;;;;2084639;28;19921;-80
2023/07/28 00:51:14;;;;;;;;;;;;;;;;;;2079429;28;20278;-79
2023/07/28 00:52:34;;;;;;;;;;;;;;;;;;2081368;28;20474;-79
2023/07/28 00:53:55;;;;;;;;;;;;;;;;;;2087489;28;19920;-79
2023/07/28 00:55:16;;;;;;;;;;;;;;;;;;2082896;28;19917;-80
2023/07/28 00:56:37;;;;;;;;;;;;;;;;;;2080409;28;20389;-80
2023/07/28 00:57:57;;;;;;;;;;;;;;;;;;2083231;28;19943;-80
2023/07/28 00:59:18;;;;;;;;;;;;;;;;;;2095534;28;21112;-80
2023/07/28 01:00:39;;;;;;;;;;;;;;;;;;2080011;28;19913;-79
2023/07/28 01:02:00;;;;;;;;;;;;;;;;;;2081280;28;19920;-80
2023/07/28 01:03:20;;;;;;;;;;;;;;;;;;2085797;28;20372;-80
2023/07/28 01:04:41;;;;;;;;;;;;;;;;;;2088722;28;19971;-80
2023/07/28 01:06:02;;;;;;;;;;;;;;;;;;2085965;28;19916;-80
2023/07/28 01:07:23;;;;;;;;;;;;;;;;;;2085786;28;19912;-80
2023/07/28 01:08:43;;;;;;;;;;;;;;;;;;2091522;28;19909;-80
2023/07/28 01:10:04;;;;;;;;;;;;;;;;;;2085108;28;19921;-80
2023/07/28 01:11:25;;;;;;;;;;;;;;;;;;2084391;28;20391;-80
2023/07/28 01:12:45;;;;;;;;;;;;;;;;;;2095014;28;20359;-80
2023/07/28 01:14:06;;;;;;;;;;;;;;;;;;2083704;28;19921;-79
2023/07/28 01:15:27;;;;;;;;;;;;;;;;;;2091646;28;19909;-80
2023/07/28 01:16:48;;;;;;;;;;;;;;;;;;2088143;28;19979;-80
2023/07/28 01:18:08;;;;;;;;;;;;;;;;;;2095664;28;19912;-79
2023/07/28 01:19:29;;;;;;;;;;;;;;;;;;2082159;28;20016;-80
2023/07/28 01:20:55;;;;;;;;;;;;;;;;;;2088831;28;19909;-80
2023/07/28 01:22:15;;;;;;;;;;;;;;;;;;2099171;28;20342;-80
2023/07/28 01:23:36;;;;;;;;;;;;;;;;;;2095985;28;19928;-80
2023/07/28 01:24:57;;;;;;;;;;;;;;;;;;2089461;28;19913;-79
2023/07/28 01:26:18;;;;;;;;;;;;;;;;;;2079964;28;19967;-80
2023/07/28 01:27:42;;;;;;;;;;;;;;;;;;2085811;28;20012;-79
2023/07/28 01:29:03;;;;;;;;;;;;;;;;;;2080617;28;19960;-80
2023/07/28 01:30:26;;;;;;;;;;;;;;;;;;2087472;28;19909;-80
2023/07/28 01:31:47;;;;;;;;;;;;;;;;;;2089580;28;20264;-80
2023/07/28 01:33:08;;;;;;;;;;;;;;;;;;2082243;28;20292;-80
2023/07/28 01:34:29;;;;;;;;;;;;;;;;;;2079162;28;19910;-79
2023/07/28 01:35:49;;;;;;;;;;;;;;;;;;2087974;28;19944;-80
2023/07/28 01:37:10;;;;;;;;;;;;;;;;;;2088910;28;19960;-80
2023/07/28 01:38:31;;;;;;;;;;;;;;;;;;2081304;28;19933;-80
2023/07/28 01:39:51;;;;;;;;;;;;;;;;;;2086627;28;19909;-79
2023/07/28 01:41:12;;;;;;;;;;;;;;;;;;2089140;28;19936;-80
2023/07/28 01:42:33;;;;;;;;;;;;;;;;;;2084171;28;19921;-80
2023/07/28 01:43:55;;;;;;;;;;;;;;;;;;2078875;28;19932;-79
2023/07/28 01:45:16;;;;;;;;;;;;;;;;;;2084124;28;19972;-79
2023/07/28 01:46:36;;;;;;;;;;;;;;;;;;2087088;28;19975;-79
2023/07/28 01:47:57;;;;;;;;;;;;;;;;;;2085724;28;20368;-79
2023/07/28 01:49:18;;;;;;;;;;;;;;;;;;2076006;28;19917;-80
2023/07/28 01:50:39;;;;;;;;;;;;;;;;;;2082324;28;19921;-79
2023/07/28 01:51:59;;;;;;;;;;;;;;;;;;2077356;28;19980;-79
2023/07/28 01:53:20;;;;;;;;;;;;;;;;;;2083446;28;20415;-79
2023/07/28 01:54:41;;;;;;;;;;;;;;;;;;2079389;28;19917;-79
2023/07/28 01:56:02;;;;;;;;;;;;;;;;;;2082173;28;19920;-79
2023/07/28 01:57:27;;;;;;;;;;;;;;;;;;2087359;28;19936;-80
2023/07/28 01:58:47;;;;;;;;;;;;;;;;;;2079380;28;19921;-79
2023/07/28 02:00:08;;;;;;;;;;;;;;;;;;2083831;28;19917;-80
2023/07/28 02:01:29;;;;;;;;;;;;;;;;;;2089841;28;19935;-78
2023/07/28 02:02:49;;;;;;;;;;;;;;;;;;2095426;28;19912;-79
2023/07/28 02:04:10;;;;;;;;;;;;;;;;;;2082039;28;19979;-78
2023/07/28 02:05:31;;;;;;;;;;;;;;;;;;2099457;28;20018;-78
2023/07/28 02:06:52;;;;;;;;;;;;;;;;;;2084442;28;20380;-78
2023/07/28 02:08:12;;;;;;;;;;;;;;;;;;2086594;28;19935;-78
2023/07/28 02:09:33;;;;;;;;;;;;;;;;;;2096133;28;19990;-79
2023/07/28 02:10:54;;;;;;;;;;;;;;;;;;2086814;28;19913;-79
2023/07/28 02:12:15;;;;;;;;;;;;;;;;;;2085988;28;19943;-79
2023/07/28 02:13:35;;;;;;;;;;;;;;;;;;2094661;28;19920;-79
2023/07/28 02:14:56;;;;;;;;;;;;;;;;;;2085689;28;19913;-79
2023/07/28 02:16:17;;;;;;;;;;;;;;;;;;2073213;28;19914;-79
2023/07/28 02:17:37;;;;;;;;;;;;;;;;;;2085468;28;19917;-79
2023/07/28 02:18:58;;;;;;;;;;;;;;;;;;2096040;28;19913;-78
2023/07/28 02:20:19;;;;;;;;;;;;;;;;;;2082156;28;19916;-79
2023/07/28 02:21:40;;;;;;;;;;;;;;;;;;2088758;28;19909;-79
2023/07/28 02:23:00;;;;;;;;;;;;;;;;;;2087145;28;19909;-79
2023/07/28 02:24:21;;;;;;;;;;;;;;;;;;2084174;28;19921;-79
2023/07/28 02:25:42;;;;;;;;;;;;;;;;;;2081345;28;19910;-78
2023/07/28 02:27:02;;;;;;;;;;;;;;;;;;2087547;28;19958;-78
2023/07/28 02:28:23;;;;;;;;;;;;;;;;;;2094071;28;20319;-79
2023/07/28 02:29:45;;;;;;;;;;;;;;;;;;2093092;28;19996;-78
2023/07/28 02:31:05;;;;;;;;;;;;;;;;;;2082772;28;19910;-78
2023/07/28 02:32:26;;;;;;;;;;;;;;;;;;2088282;28;19920;-79
2023/07/28 02:33:47;;;;;;;;;;;;;;;;;;2076301;28;19932;-78
2023/07/28 02:35:07;;;;;;;;;;;;;;;;;;2084182;28;19912;-78
2023/07/28 02:36:28;;;;;;;;;;;;;;;;;;2081924;28;20397;-79
2023/07/28 02:37:49;;;;;;;;;;;;;;;;;;2088729;28;19908;-78
2023/07/28 02:39:10;;;;;;;;;;;;;;;;;;2086023;28;20470;-79
2023/07/28 02:40:30;;;;;;;;;;;;;;;;;;2099121;28;19915;-78
2023/07/28 02:41:51;;;;;;;;;;;;;;;;;;2088945;28;19921;-79
2023/07/28 02:43:12;;;;;;;;;;;;;;;;;;2093637;28;19908;-78
2023/07/28 02:44:32;;;;;;;;;;;;;;;;;;2078092;28;20257;-79
2023/07/28 02:45:53;;;;;;;;;;;;;;;;;;2084300;28;19913;-78
2023/07/28 02:47:14;;;;;;;;;;;;;;;;;;2092300;28;20430;-79
2023/07/28 02:48:34;;;;;;;;;;;;;;;;;;2078066;28;19917;-79
2023/07/28 02:49:55;;;;;;;;;;;;;;;;;;2081167;28;19912;-79
2023/07/28 02:51:16;;;;;;;;;;;;;;;;;;2083113;28;19987;-79
2023/07/28 02:52:36;;;;;;;;;;;;;;;;;;2074224;28;20431;-78
2023/07/28 02:53:57;;;;;;;;;;;;;;;;;;2080594;28;20107;-79
2023/07/28 02:55:18;;;;;;;;;;;;;;;;;;2083864;28;19920;-78
2023/07/28 02:56:39;;;;;;;;;;;;;;;;;;2086525;28;19970;-78
2023/07/28 02:57:59;;;;;;;;;;;;;;;;;;2079053;28;20561;-78
2023/07/28 02:59:20;;;;;;;;;;;;;;;;;;2075121;28;19952;-78
2023/07/28 03:00:41;;;;;;;;;;;;;;;;;;2084618;28;20273;-78
2023/07/28 03:02:02;;;;;;;;;;;;;;;;;;2086829;28;19975;-79
2023/07/28 03:03:22;;;;;;;;;;;;;;;;;;2077716;28;19917;-79
2023/07/28 03:04:43;;;;;;;;;;;;;;;;;;2076180;28;19922;-79
2023/07/28 03:06:04;;;;;;;;;;;;;;;;;;2083351;28;20300;-79
2023/07/28 03:07:24;;;;;;;;;;;;;;;;;;2089002;28;19912;-78
2023/07/28 03:08:45;;;;;;;;;;;;;;;;;;2087793;28;20299;-78
2023/07/28 03:10:06;;;;;;;;;;;;;;;;;;2093322;28;19912;-78
2023/07/28 03:11:26;;;;;;;;;;;;;;;;;;2086846;28;20333;-78
2023/07/28 03:12:47;;;;;;;;;;;;;;;;;;2085855;28;19967;-78
2023/07/28 03:14:08;;;;;;;;;;;;;;;;;;2086780;28;19975;-78
2023/07/28 03:15:29;;;;;;;;;;;;;;;;;;2083365;28;19913;-79
2023/07/28 03:16:49;;;;;;;;;;;;;;;;;;2093439;28;19912;-78
2023/07/28 03:18:10;;;;;;;;;;;;;;;;;;2087673;28;19913;-79
2023/07/28 03:19:31;;;;;;;;;;;;;;;;;;2083647;28;19917;-78
2023/07/28 03:20:51;;;;;;;;;;;;;;;;;;2084052;28;19920;-78
2023/07/28 03:22:12;;;;;;;;;;;;;;;;;;2085739;28;19912;-78
2023/07/28 03:23:33;;;;;;;;;;;;;;;;;;2088569;28;19967;-79
2023/07/28 03:24:53;;;;;;;;;;;;;;;;;;2093469;28;19931;-79
2023/07/28 03:26:14;;;;;;;;;;;;;;;;;;2085156;28;19916;-78
2023/07/28 03:27:35;;;;;;;;;;;;;;;;;;2075668;28;19913;-78
2023/07/28 03:28:56;;;;;;;;;;;;;;;;;;2080489;28;20387;-79
2023/07/28 03:30:16;;;;;;;;;;;;;;;;;;2085749;28;19944;-80
2023/07/28 03:31:37;;;;;;;;;;;;;;;;;;2076001;28;19925;-79
2023/07/28 03:32:58;;;;;;;;;;;;;;;;;;2083900;28;20284;-79
2023/07/28 03:34:18;;;;;;;;;;;;;;;;;;2084126;28;19971;-79
2023/07/28 03:35:39;;;;;;;;;;;;;;;;;;2092516;28;19944;-79
2023/07/28 03:37:00;;;;;;;;;;;;;;;;;;2088348;28;19959;-79
2023/07/28 03:38:21;;;;;;;;;;;;;;;;;;2087478;28;20388;-79
2023/07/28 03:39:41;;;;;;;;;;;;;;;;;;2084689;28;20521;-79
2023/07/28 03:41:02;;;;;;;;;;;;;;;;;;2081999;28;19921;-79
2023/07/28 03:42:23;;;;;;;;;;;;;;;;;;2092647;28;19926;-79
2023/07/28 03:43:44;;;;;;;;;;;;;;;;;;2086452;28;20319;-78
2023/07/28 03:45:04;;;;;;;;;;;;;;;;;;2092845;28;19916;-78
2023/07/28 03:46:25;;;;;;;;;;;;;;;;;;2078453;28;19971;-79
2023/07/28 03:47:46;;;;;;;;;;;;;;;;;;2083066;28;19916;-78
2023/07/28 03:49:06;;;;;;;;;;;;;;;;;;2085817;28;19920;-78
2023/07/28 03:50:27;;;;;;;;;;;;;;;;;;2083572;28;19920;-79
2023/07/28 03:51:48;;;;;;;;;;;;;;;;;;2081922;28;19943;-79
2023/07/28 03:53:09;;;;;;;;;;;;;;;;;;2076187;28;19917;-79
2023/07/28 03:54:30;;;;;;;;;;;;;;;;;;2083623;28;19975;-78
2023/07/28 03:55:50;;;;;;;;;;;;;;;;;;2075380;28;19913;-78
2023/07/28 03:57:11;;;;;;;;;;;;;;;;;;2082165;28;19974;-79
2023/07/28 03:58:32;;;;;;;;;;;;;;;;;;2086711;28;20401;-78
2023/07/28 03:59:52;;;;;;;;;;;;;;;;;;2080348;28;19920;-79
2023/07/28 04:01:13;;;;;;;;;;;;;;;;;;2083822;28;19984;-78
2023/07/28 04:02:34;;;;;;;;;;;;;;;;;;2077820;28;19956;-78
2023/07/28 04:03:55;;;;;;;;;;;;;;;;;;2075592;28;19940;-79
2023/07/28 04:05:16;;;;;;;;;;;;;;;;;;2075896;28;19925;-79
2023/07/28 04:06:36;;;;;;;;;;;;;;;;;;2092552;28;19962;-80
2023/07/28 04:07:57;;;;;;;;;;;;;;;;;;2086993;28;19916;-79
2023/07/28 04:09:18;;;;;;;;;;;;;;;;;;2088426;28;19950;-79
2023/07/28 04:10:38;;;;;;;;;;;;;;;;;;2084477;28;20134;-79
2023/07/28 04:11:59;;;;;;;;;;;;;;;;;;2078717;28;19913;-78
2023/07/28 04:13:20;;;;;;;;;;;;;;;;;;2085913;28;19989;-79
2023/07/28 04:14:41;;;;;;;;;;;;;;;;;;2076901;28;19921;-78
2023/07/28 04:16:01;;;;;;;;;;;;;;;;;;2077737;28;19909;-79
2023/07/28 04:17:22;;;;;;;;;;;;;;;;;;2093968;28;19920;-79
2023/07/28 04:18:43;;;;;;;;;;;;;;;;;;2083427;28;19916;-79
2023/07/28 04:20:03;;;;;;;;;;;;;;;;;;2086962;28;20253;-79
2023/07/28 04:21:24;;;;;;;;;;;;;;;;;;2087919;28;19908;-79
2023/07/28 04:22:45;;;;;;;;;;;;;;;;;;2093547;28;19912;-80
2023/07/28 04:24:06;;;;;;;;;;;;;;;;;;2088362;28;19984;-79
2023/07/28 04:25:27;;;;;;;;;;;;;;;;;;2080036;28;19924;-79
2023/07/28 04:26:48;;;;;;;;;;;;;;;;;;2093142;28;19919;-79
2023/07/28 04:28:09;;;;;;;;;;;;;;;;;;2092342;28;19932;-80
2023/07/28 04:29:30;;;;;;;;;;;;;;;;;;2096518;28;19958;-79
2023/07/28 04:30:51;;;;;;;;;;;;;;;;;;2080515;28;19916;-79
2023/07/28 04:32:11;;;;;;;;;;;;;;;;;;2077804;28;20364;-79
2023/07/28 04:33:32;;;;;;;;;;;;;;;;;;2081118;28;19917;-79
2023/07/28 04:34:53;;;;;;;;;;;;;;;;;;2071551;28;19973;-79
2023/07/28 04:36:14;;;;;;;;;;;;;;;;;;2072760;28;20148;-78
2023/07/28 04:37:34;;;;;;;;;;;;;;;;;;2088326;28;19908;-80
2023/07/28 04:38:55;;;;;;;;;;;;;;;;;;2090105;28;19913;-79
2023/07/28 04:40:16;;;;;;;;;;;;;;;;;;2090731;28;19909;-79
2023/07/28 04:41:37;;;;;;;;;;;;;;;;;;2089087;28;19924;-79
2023/07/28 04:42:57;;;;;;;;;;;;;;;;;;2091052;28;19928;-79
2023/07/28 04:44:19;;;;;;;;;;;;;;;;;;2086573;28;19917;-79
2023/07/28 04:45:40;;;;;;;;;;;;;;;;;;2085029;28;19979;-79
2023/07/28 04:47:00;;;;;;;;;;;;;;;;;;2076484;28;19917;-79
2023/07/28 04:48:21;;;;;;;;;;;;;;;;;;2083271;28;19917;-79
2023/07/28 04:49:42;;;;;;;;;;;;;;;;;;2081719;28;19959;-79
2023/07/28 04:51:02;;;;;;;;;;;;;;;;;;2079815;28;20371;-79
2023/07/28 04:52:23;;;;;;;;;;;;;;;;;;2083872;28;19921;-79
2023/07/28 04:53:44;;;;;;;;;;;;;;;;;;2084852;28;19975;-79
2023/07/28 04:55:05;;;;;;;;;;;;;;;;;;2084709;28;19950;-79
2023/07/28 04:56:25;;;;;;;;;;;;;;;;;;2086091;28;19917;-79
2023/07/28 04:57:46;;;;;;;;;;;;;;;;;;2079669;28;19945;-78
2023/07/28 04:59:07;;;;;;;;;;;;;;;;;;2093167;28;19921;-79
2023/07/28 05:00:28;;;;;;;;;;;;;;;;;;2077087;28;20376;-79
2023/07/28 05:01:49;;;;;;;;;;;;;;;;;;2083578;28;20000;-79
2023/07/28 05:03:09;;;;;;;;;;;;;;;;;;2082839;28;19927;-79
2023/07/28 05:04:30;;;;;;;;;;;;;;;;;;2083850;28;20449;-79
2023/07/28 05:05:51;;;;;;;;;;;;;;;;;;2077051;28;20015;-80
2023/07/28 05:07:11;;;;;;;;;;;;;;;;;;2083773;28;19912;-79
2023/07/28 05:08:32;;;;;;;;;;;;;;;;;;2076765;28;20365;-79
2023/07/28 05:09:53;;;;;;;;;;;;;;;;;;2079920;28;19929;-80
2023/07/28 05:11:14;;;;;;;;;;;;;;;;;;2075836;28;20470;-79
2023/07/28 05:12:34;;;;;;;;;;;;;;;;;;2080894;28;19916;-79
2023/07/28 05:13:55;;;;;;;;;;;;;;;;;;2083649;28;20399;-78
2023/07/28 05:15:16;;;;;;;;;;;;;;;;;;2076569;28;19929;-78
2023/07/28 05:16:36;;;;;;;;;;;;;;;;;;2076655;28;19913;-79
2023/07/28 05:17:57;;;;;;;;;;;;;;;;;;2074174;28;19917;-79
2023/07/28 05:19:18;;;;;;;;;;;;;;;;;;2081728;28;19920;-79
2023/07/28 05:20:39;;;;;;;;;;;;;;;;;;2076581;28;19921;-78
2023/07/28 05:21:59;;;;;;;;;;;;;;;;;;2083044;28;19936;-78
2023/07/28 05:23:20;;;;;;;;;;;;;;;;;;2085720;28;19912;-79
2023/07/28 05:24:41;;;;;;;;;;;;;;;;;;2085040;28;19929;-78
2023/07/28 05:26:01;;;;;;;;;;;;;;;;;;2093140;28;19920;-79
2023/07/28 05:27:22;;;;;;;;;;;;;;;;;;2089264;28;19960;-79
2023/07/28 05:28:43;;;;;;;;;;;;;;;;;;2084613;28;20326;-79
2023/07/28 05:30:03;;;;;;;;;;;;;;;;;;2086251;28;19946;-79
2023/07/28 05:31:24;;;;;;;;;;;;;;;;;;2077324;28;20369;-79
2023/07/28 05:32:46;;;;;;;;;;;;;;;;;;2074166;28;19917;-79
2023/07/28 05:34:07;;;;;;;;;;;;;;;;;;2087760;28;19921;-80
2023/07/28 05:35:28;;;;;;;;;;;;;;;;;;2082876;28;19964;-78
2023/07/28 05:36:48;;;;;;;;;;;;;;;;;;2081061;28;19917;-79
2023/07/28 05:38:09;;;;;;;;;;;;;;;;;;2084731;28;19912;-80
2023/07/28 05:39:30;;;;;;;;;;;;;;;;;;2088349;28;19908;-78
2023/07/28 05:40:50;;;;;;;;;;;;;;;;;;2080686;28;19910;-79
2023/07/28 05:42:11;;;;;;;;;;;;;;;;;;2082455;28;19968;-79
2023/07/28 05:43:32;;;;;;;;;;;;;;;;;;2081477;28;19916;-80
2023/07/28 05:44:54;;;;;;;;;;;;;;;;;;2078619;28;19944;-79
2023/07/28 05:46:15;;;;;;;;;;;;;;;;;;2081575;28;19932;-79
2023/07/28 05:47:35;;;;;;;;;;;;;;;;;;2082947;28;19909;-79
2023/07/28 05:48:56;;;;;;;;;;;;;;;;;;2084008;28;19912;-79
2023/07/28 05:50:17;;;;;;;;;;;;;;;;;;2074639;28;19909;-79
2023/07/28 05:51:37;;;;;;;;;;;;;;;;;;2084727;28;20281;-79
2023/07/28 05:52:58;;;;;;;;;;;;;;;;;;2082412;28;19913;-79
2023/07/28 05:54:19;;;;;;;;;;;;;;;;;;2096925;28;19912;-79
2023/07/28 05:55:39;;;;;;;;;;;;;;;;;;2079726;28;20616;-79
2023/07/28 05:57:00;;;;;;;;;;;;;;;;;;2079822;28;19916;-78
2023/07/28 05:58:21;;;;;;;;;;;;;;;;;;2096006;28;19916;-79
2023/07/28 05:59:42;;;;;;;;;;;;;;;;;;2078302;28;20395;-78
2023/07/28 06:01:03;;;;;;;;;;;;;;;;;;2077217;28;19913;-79
2023/07/28 06:02:23;;;;;;;;;;;;;;;;;;2091099;28;20264;-78
2023/07/28 06:03:44;;;;;;;;;;;;;;;;;;2087935;28;19917;-79
2023/07/28 06:05:05;;;;;;;;;;;;;;;;;;2087515;28;20320;-79
2023/07/28 06:06:26;;;;;;;;;;;;;;;;;;2076342;28;19914;-79
2023/07/28 06:07:47;;;;;;;;;;;;;;;;;;2081867;28;19913;-79
2023/07/28 06:09:08;;;;;;;;;;;;;;;;;;2092120;28;19917;-79
2023/07/28 06:10:29;;;;;;;;;;;;;;;;;;2085685;28;19928;-79
2023/07/28 06:11:49;;;;;;;;;;;;;;;;;;2086679;28;19967;-79
2023/07/28 06:13:10;;;;;;;;;;;;;;;;;;2074788;28;20355;-79
2023/07/28 06:14:31;;;;;;;;;;;;;;;;;;2083787;28;19913;-79
2023/07/28 06:15:51;;;;;;;;;;;;;;;;;;2077202;28;20304;-78
2023/07/28 06:17:12;;;;;;;;;;;;;;;;;;2082637;28;20287;-78
2023/07/28 06:18:33;;;;;;;;;;;;;;;;;;2077631;28;19968;-79
2023/07/28 06:19:53;;;;;;;;;;;;;;;;;;2081850;28;20257;-77
2023/07/28 06:21:14;;;;;;;;;;;;;;;;;;2083783;28;19924;-78
2023/07/28 06:22:35;;;;;;;;;;;;;;;;;;2084569;28;20300;-78
2023/07/28 06:23:55;;;;;;;;;;;;;;;;;;2078303;28;20024;-77
2023/07/28 06:25:16;;;;;;;;;;;;;;;;;;2080539;28;19995;-78
2023/07/28 06:26:37;;;;;;;;;;;;;;;;;;2086165;28;19913;-78
2023/07/28 06:27:58;;;;;;;;;;;;;;;;;;2076204;28;19917;-78
2023/07/28 06:29:18;;;;;;;;;;;;;;;;;;2085108;28;19913;-77
2023/07/28 06:30:39;;;;;;;;;;;;;;;;;;2091813;28;20273;-78
2023/07/28 06:32:00;;;;;;;;;;;;;;;;;;2086665;28;19913;-78
2023/07/28 06:33:21;;;;;;;;;;;;;;;;;;2076511;28;19921;-78
2023/07/28 06:34:42;;;;;;;;;;;;;;;;;;2083641;28;19959;-77
2023/07/28 06:36:03;;;;;;;;;;;;;;;;;;2074335;28;19921;-78
2023/07/28 06:37:23;;;;;;;;;;;;;;;;;;2086865;28;19912;-78
2023/07/28 06:38:48;;;;;;;;;;;;;;;;;;2085753;28;19920;-78
2023/07/28 06:40:09;;;;;;;;;;;;;;;;;;2081693;28;19922;-78
2023/07/28 06:41:29;;;;;;;;;;;;;;;;;;2073672;28;19917;-77
2023/07/28 06:42:51;;;;;;;;;;;;;;;;;;2088305;28;19912;-78
2023/07/28 06:44:11;;;;;;;;;;;;;;;;;;2085238;28;19944;-78
2023/07/28 06:45:32;;;;;;;;;;;;;;;;;;2085419;28;20316;-77
2023/07/28 06:46:53;;;;;;;;;;;;;;;;;;2093327;28;19958;-78
2023/07/28 06:48:14;;;;;;;;;;;;;;;;;;2085240;28;19951;-78
2023/07/28 06:49:35;;;;;;;;;;;;;;;;;;2075391;28;19913;-78
2023/07/28 06:50:55;;;;;;;;;;;;;;;;;;2082629;28;19971;-78
2023/07/28 06:52:16;;;;;;;;;;;;;;;;;;2086682;28;19913;-78
2023/07/28 06:53:37;;;;;;;;;;;;;;;;;;2074028;28;20527;-79
2023/07/28 06:54:57;;;;;;;;;;;;;;;;;;2082572;28;19917;-78
2023/07/28 06:56:18;;;;;;;;;;;;;;;;;;2085734;28;19998;-78
2023/07/28 06:57:39;;;;;;;;;;;;;;;;;;2080908;28;20320;-77
2023/07/28 06:59:00;;;;;;;;;;;;;;;;;;2072582;28;20424;-77
2023/07/28 07:00:20;;;;;;;;;;;;;;;;;;2083545;28;19913;-78
2023/07/28 07:01:41;;;;;;;;;;;;;;;;;;2069769;28;19921;-78
2023/07/28 07:03:02;;;;;;;;;;;;;;;;;;2079044;28;20327;-78
2023/07/28 07:04:22;;;;;;;;;;;;;;;;;;2071930;28;19913;-78
2023/07/28 07:05:43;;;;;;;;;;;;;;;;;;2071648;28;19925;-78
2023/07/28 07:07:04;;;;;;;;;;;;;;;;;;2089103;28;19908;-78
2023/07/28 07:08:26;;;;;;;;;;;;;;;;;;2083092;28;20287;-79
2023/07/28 07:09:47;;;;;;;;;;;;;;;;;;2085001;28;19980;-79
2023/07/28 07:11:07;;;;;;;;;;;;;;;;;;2080507;28;19943;-78
2023/07/28 07:12:28;;;;;;;;;;;;;;;;;;2086836;28;19913;-79
2023/07/28 07:13:49;;;;;;;;;;;;;;;;;;2091413;28;19940;-78
2023/07/28 07:15:11;;;;;;;;;;;;;;;;;;2095290;28;19916;-78
2023/07/28 07:16:32;;;;;;;;;;;;;;;;;;2084159;28;19916;-78
2023/07/28 07:17:53;;;;;;;;;;;;;;;;;;2078025;28;19917;-78
2023/07/28 07:19:15;;;;;;;;;;;;;;;;;;2085513;28;19917;-78
2023/07/28 07:20:36;;;;;;;;;;;;;;;;;;2076939;28;20311;-78
2023/07/28 07:21:56;;;;;;;;;;;;;;;;;;2082407;28;19921;-78
2023/07/28 07:23:17;;;;;;;;;;;;;;;;;;2088465;28;20361;-79
2023/07/28 07:24:38;;;;;;;;;;;;;;;;;;2088746;28;19940;-78
2023/07/28 07:25:58;;;;;;;;;;;;;;;;;;2079176;28;19921;-78
2023/07/28 07:27:19;;;;;;;;;;;;;;;;;;2084306;28;19913;-78
2023/07/28 07:28:40;;;;;;;;;;;;;;;;;;2087790;28;19913;-78
2023/07/28 07:30:01;;;;;;;;;;;;;;;;;;2079638;28;19952;-78
2023/07/28 07:31:22;;;;;;;;;;;;;;;;;;2076035;28;19972;-78
2023/07/28 07:32:43;;;;;;;;;;;;;;;;;;2075788;28;19921;-78
2023/07/28 07:34:04;;;;;;;;;;;;;;;;;;2081941;28;20330;-78
2023/07/28 07:35:24;;;;;;;;;;;;;;;;;;2078410;28;21218;-79
2023/07/28 07:36:45;;;;;;;;;;;;;;;;;;2079381;28;19921;-79
2023/07/28 07:38:09;;;;;;;;;;;;;;;;;;2068524;28;19921;-78
2023/07/28 07:39:29;;;;;;;;;;;;;;;;;;2068793;28;20430;-77
2023/07/28 07:40:50;;;;;;;;;;;;;;;;;;2087904;28;19966;-78
2023/07/28 07:42:14;;;;;;;;;;;;;;;;;;2085396;28;20276;-78
2023/07/28 07:43:35;;;;;;;;;;;;;;;;;;2074571;28;19928;-78
2023/07/28 07:44:56;;;;;;;;;;;;;;;;;;2084153;28;19913;-78
2023/07/28 07:46:16;;;;;;;;;;;;;;;;;;2082803;28;19917;-76
2023/07/28 07:47:37;;;;;;;;;;;;;;;;;;2082362;28;19913;-77
2023/07/28 07:48:58;;;;;;;;;;;;;;;;;;2080319;28;19921;-78
2023/07/28 07:50:19;;;;;;;;;;;;;;;;;;2090219;28;19913;-78
2023/07/28 07:51:39;;;;;;;;;;;;;;;;;;2084536;28;19936;-78
2023/07/28 07:53:00;;;;;;;;;;;;;;;;;;2093355;28;19916;-78
2023/07/28 07:54:21;;;;;;;;;;;;;;;;;;2086754;28;19917;-79
2023/07/28 07:55:42;;;;;;;;;;;;;;;;;;2075656;28;19941;-78
2023/07/28 07:57:02;;;;;;;;;;;;;;;;;;2082749;28;19908;-78
2023/07/28 07:58:23;;;;;;;;;;;;;;;;;;2089991;28;19909;-78
2023/07/28 07:59:44;;;;;;;;;;;;;;;;;;2074547;28;20324;-78
2023/07/28 08:01:04;;;;;;;;;;;;;;;;;;2071843;28;20023;-79
2023/07/28 08:02:25;;;;;;;;;;;;;;;;;;2075550;28;20274;-78
2023/07/28 08:03:46;;;;;;;;;;;;;;;;;;2083701;28;19938;-79
2023/07/28 08:05:07;;;;;;;;;;;;;;;;;;2087155;28;19924;-79
2023/07/28 08:06:28;;;;;;;;;;;;;;;;;;2085742;28;19971;-78
2023/07/28 08:07:50;;;;;;;;;;;;;;;;;;2088165;28;19909;-78
2023/07/28 08:09:11;;;;;;;;;;;;;;;;;;2075081;28;19960;-79
2023/07/28 08:10:32;;;;;;;;;;;;;;;;;;2095990;28;19912;-78
2023/07/28 08:11:53;;;;;;;;;;;;;;;;;;2087924;28;19935;-78
2023/07/28 08:13:13;;;;;;;;;;;;;;;;;;2079886;28;19924;-78
2023/07/28 08:14:34;;;;;;;;;;;;;;;;;;2081546;28;20310;-78
2023/07/28 08:15:55;;;;;;;;;;;;;;;;;;2079088;28;19936;-79
2023/07/28 08:17:15;;;;;;;;;;;;;;;;;;2087002;28;20315;-78
2023/07/28 08:18:36;;;;;;;;;;;;;;;;;;2093572;28;19916;-78
2023/07/28 08:19:57;;;;;;;;;;;;;;;;;;2080899;28;19921;-79
2023/07/28 08:21:17;;;;;;;;;;;;;;;;;;2083388;28;19932;-79
2023/07/28 08:22:38;;;;;;;;;;;;;;;;;;2090054;28;20076;-78
2023/07/28 08:23:59;;;;;;;;;;;;;;;;;;2080644;28;19921;-79
2023/07/28 08:25:20;;;;;;;;;;;;;;;;;;2083197;28;20368;-79
2023/07/28 08:26:40;;;;;;;;;;;;;;;;;;2086991;28;19909;-78
2023/07/28 08:28:01;;;;;;;;;;;;;;;;;;2084849;28;19917;-78
2023/07/28 08:29:22;;;;;;;;;;;;;;;;;;2089152;28;19909;-81
2023/07/28 08:30:42;;;;;;;;;;;;;;;;;;2078393;28;19913;-82
2023/07/28 08:32:03;;;;;;;;;;;;;;;;;;2080317;28;19959;-80
2023/07/28 08:33:24;;;;;;;;;;;;;;;;;;2078387;28;19913;-79
2023/07/28 08:34:44;;;;;;;;;;;;;;;;;;2085463;28;19913;-80
2023/07/28 08:36:05;;;;;;;;;;;;;;;;;;2082475;28;19917;-79
2023/07/28 08:37:26;;;;;;;;;;;;;;;;;;2085229;28;20391;-79
2023/07/28 08:38:47;;;;;;;;;;;;;;;;;;2092173;28;19909;-80
2023/07/28 08:40:08;;;;;;;;;;;;;;;;;;2082811;28;20273;-80
2023/07/28 08:41:29;;;;;;;;;;;;;;;;;;2088293;28;19913;-79
2023/07/28 08:42:49;;;;;;;;;;;;;;;;;;2084566;28;19909;-80
2023/07/28 08:44:10;;;;;;;;;;;;;;;;;;2082378;28;19917;-80
2023/07/28 08:45:31;;;;;;;;;;;;;;;;;;2093409;28;19912;-80
2023/07/28 08:46:51;;;;;;;;;;;;;;;;;;2082183;28;19967;-80
2023/07/28 08:48:12;;;;;;;;;;;;;;;;;;2088080;28;19912;-79
2023/07/28 08:49:35;;;;;;;;;;;;;;;;;;2079413;28;20387;-81
2023/07/28 08:50:55;;;;;;;;;;;;;;;;;;2089522;28;19909;-80
2023/07/28 08:52:16;;;;;;;;;;;;;;;;;;2090800;28;19913;-82
2023/07/28 08:53:37;;;;;;;;;;;;;;;;;;2089014;28;20341;-82
2023/07/28 08:54:58;;;;;;;;;;;;;;;;;;2079999;28;19936;-81
2023/07/28 08:56:19;;;;;;;;;;;;;;;;;;2082567;28;19929;-83
2023/07/28 08:57:39;;;;;;;;;;;;;;;;;;2084411;28;19917;-81
2023/07/28 08:59:00;;;;;;;;;;;;;;;;;;2088658;28;20002;-82
2023/07/28 09:00:21;;;;;;;;;;;;;;;;;;2083815;28;19909;-82
2023/07/28 09:01:43;;;;;;;;;;;;;;;;;;2083948;28;19936;-81
2023/07/28 09:03:04;;;;;;;;;;;;;;;;;;2074851;28;19985;-82
2023/07/28 09:04:24;;;;;;;;;;;;;;;;;;2085476;28;20326;-81
2023/07/28 09:05:48;;;;;;;;;;;;;;;;;;2088023;28;19929;-82
2023/07/28 09:07:09;;;;;;;;;;;;;;;;;;2097996;28;19912;-81
2023/07/28 09:08:30;;;;;;;;;;;;;;;;;;2080359;28;19928;-82
2023/07/28 09:09:51;;;;;;;;;;;;;;;;;;2078666;28;20288;-81
2023/07/28 09:11:13;;;;;;;;;;;;;;;;;;2088050;28;19912;-82